Aérodrome :
LOGIN :

S'inscrire | Disclaimer

   EN    FR    IT 

 










Légende :    VFR   VFR Marginal   IFR   IFR Intensif   IFR Très Intensif
Visi : 
Plafond : 
>= 8 km
>= 3000ft
5 à 8 km
1000 à 3000 ft
1500m à 5 km
500 à 1000 ft
800 à 1500m
200 à 500 ft
< 800m
< 200 ft
Symboles :   Orages  Brouillard  Fortes neiges  Fortes précipitations  Vent > 20 kt
SIGMETs :   Divers  Orages  Givrage  Turbulence  Onde Orograph.  Cendres Volcan.






- Altitude de l'aérodrome : 598 ft
- Code IATA : BQH


EGKB - Biggin Hill

DERNIER METAR :
  • 301250Z 22013G24KT 200V260 9999 BKN010 14/13 Q1017

METARs EXPIRÉS :
  • 301220Z 22014G24KT 9999 BKN007 14/13 Q1017
  • 301150Z 23013KT 200V260 9999 BKN008 14/13 Q1017
  • 301120Z 22015KT 9999 BKN008 14/13 Q1017
  • 301050Z 22015KT 190V250 9999 BKN008 13/13 Q1017
  • 301020Z 22014G25KT 6000 BKN010 13/12 Q1016

TAF TAF EGKB
Valide du 30 à 12h jusqu'au 30 à 21h UTC


301104Z 3012/3021 23014KT 9999 BKN010
BECMG 3012/3015 BKN008
TEMPO 3012/3021 3000 RADZ
PROB40
TEMPO 3012/3015 24016G26KT
PROB30
TEMPO 3015/3021 BKN004



MET'MAP, la Météo Aéronautique d'un coup d'oeil ! - Copyright ORBIFLY Décembre 2007 - Disclaimer

ORBIFLY MET'MAP TEAM :

Programmation & Développement : Alexandra Zaïnal
Sur une idée originale de : Baudouin d'Aumeries
Assistance à la programmation : Marc-Olivier Méhu
Soutien technique & logistique : Manuel Goepfert

Contact : metmap@orbifly.com




SOURCES & CREDITS :

   NOAA